sensor_id;sensor_type;location;lat;lon;timestamp;P1;durP1;ratioP1;P2;durP2;ratioP2
6394;SDS011;3230;42.588;23.358;2023-11-22T00:00:41;4.67;;;2.87;;
6394;SDS011;3230;42.588;23.358;2023-11-22T00:03:07;5.30;;;3.60;;
6394;SDS011;3230;42.588;23.358;2023-11-22T00:05:32;4.40;;;3.20;;
6394;SDS011;3230;42.588;23.358;2023-11-22T00:07:58;5.50;;;3.53;;
6394;SDS011;3230;42.588;23.358;2023-11-22T00:10:23;5.43;;;3.27;;
6394;SDS011;3230;42.588;23.358;2023-11-22T00:12:48;5.67;;;3.70;;
6394;SDS011;3230;42.588;23.358;2023-11-22T00:15:14;9.27;;;4.13;;
6394;SDS011;3230;42.588;23.358;2023-11-22T00:17:43;9.83;;;4.80;;
6394;SDS011;3230;42.588;23.358;2023-11-22T00:20:09;10.07;;;5.33;;
6394;SDS011;3230;42.588;23.358;2023-11-22T00:22:35;9.47;;;4.80;;
6394;SDS011;3230;42.588;23.358;2023-11-22T00:25:01;7.43;;;4.73;;
6394;SDS011;3230;42.588;23.358;2023-11-22T00:27:27;11.67;;;6.00;;
6394;SDS011;3230;42.588;23.358;2023-11-22T00:29:53;8.30;;;4.17;;
6394;SDS011;3230;42.588;23.358;2023-11-22T00:32:18;6.63;;;4.23;;
6394;SDS011;3230;42.588;23.358;2023-11-22T00:34:44;4.03;;;2.90;;
6394;SDS011;3230;42.588;23.358;2023-11-22T00:37:09;6.03;;;3.60;;
6394;SDS011;3230;42.588;23.358;2023-11-22T00:39:35;5.20;;;2.47;;
6394;SDS011;3230;42.588;23.358;2023-11-22T00:42:02;5.93;;;2.47;;
6394;SDS011;3230;42.588;23.358;2023-11-22T00:44:28;3.43;;;2.10;;
6394;SDS011;3230;42.588;23.358;2023-11-22T00:46:54;4.73;;;2.17;;
6394;SDS011;3230;42.588;23.358;2023-11-22T00:49:22;2.67;;;2.23;;
6394;SDS011;3230;42.588;23.358;2023-11-22T00:51:47;2.77;;;2.40;;
6394;SDS011;3230;42.588;23.358;2023-11-22T00:54:13;4.47;;;2.90;;
6394;SDS011;3230;42.588;23.358;2023-11-22T00:56:38;4.27;;;2.70;;
6394;SDS011;3230;42.588;23.358;2023-11-22T00:59:04;5.00;;;2.70;;
6394;SDS011;3230;42.588;23.358;2023-11-22T01:01:29;2.90;;;2.47;;
6394;SDS011;3230;42.588;23.358;2023-11-22T01:03:56;2.73;;;2.03;;
6394;SDS011;3230;42.588;23.358;2023-11-22T01:06:22;3.40;;;2.53;;
6394;SDS011;3230;42.588;23.358;2023-11-22T01:08:49;5.67;;;2.70;;
6394;SDS011;3230;42.588;23.358;2023-11-22T01:11:14;4.53;;;2.60;;
6394;SDS011;3230;42.588;23.358;2023-11-22T01:13:40;3.97;;;2.73;;
6394;SDS011;3230;42.588;23.358;2023-11-22T01:16:07;4.37;;;2.90;;
6394;SDS011;3230;42.588;23.358;2023-11-22T01:18:33;3.67;;;2.87;;
6394;SDS011;3230;42.588;23.358;2023-11-22T01:20:58;3.67;;;2.50;;
6394;SDS011;3230;42.588;23.358;2023-11-22T01:23:24;3.77;;;2.50;;
6394;SDS011;3230;42.588;23.358;2023-11-22T01:25:49;5.23;;;2.90;;
6394;SDS011;3230;42.588;23.358;2023-11-22T01:28:15;4.77;;;2.93;;
6394;SDS011;3230;42.588;23.358;2023-11-22T01:30:42;3.80;;;2.67;;
6394;SDS011;3230;42.588;23.358;2023-11-22T01:33:10;4.07;;;2.80;;
6394;SDS011;3230;42.588;23.358;2023-11-22T01:35:36;4.97;;;3.20;;
6394;SDS011;3230;42.588;23.358;2023-11-22T01:38:01;5.53;;;3.40;;
6394;SDS011;3230;42.588;23.358;2023-11-22T01:40:29;10.07;;;4.37;;
6394;SDS011;3230;42.588;23.358;2023-11-22T01:42:55;6.30;;;3.67;;
6394;SDS011;3230;42.588;23.358;2023-11-22T01:45:20;6.17;;;3.90;;
6394;SDS011;3230;42.588;23.358;2023-11-22T01:47:46;6.53;;;3.67;;
6394;SDS011;3230;42.588;23.358;2023-11-22T01:50:11;6.50;;;4.03;;
6394;SDS011;3230;42.588;23.358;2023-11-22T01:52:37;6.63;;;3.50;;
6394;SDS011;3230;42.588;23.358;2023-11-22T01:55:03;6.93;;;4.10;;
6394;SDS011;3230;42.588;23.358;2023-11-22T01:57:30;7.03;;;4.10;;
6394;SDS011;3230;42.588;23.358;2023-11-22T01:59:59;7.40;;;3.77;;
6394;SDS011;3230;42.588;23.358;2023-11-22T02:02:26;9.27;;;4.10;;
6394;SDS011;3230;42.588;23.358;2023-11-22T02:04:51;5.43;;;3.60;;
6394;SDS011;3230;42.588;23.358;2023-11-22T02:07:17;10.40;;;4.20;;
6394;SDS011;3230;42.588;23.358;2023-11-22T02:09:42;7.67;;;3.67;;
6394;SDS011;3230;42.588;23.358;2023-11-22T02:12:07;5.57;;;3.77;;
6394;SDS011;3230;42.588;23.358;2023-11-22T02:14:33;8.93;;;3.93;;
6394;SDS011;3230;42.588;23.358;2023-11-22T02:16:59;5.73;;;3.07;;
6394;SDS011;3230;42.588;23.358;2023-11-22T02:19:25;6.10;;;3.53;;
6394;SDS011;3230;42.588;23.358;2023-11-22T02:21:51;4.70;;;2.73;;
6394;SDS011;3230;42.588;23.358;2023-11-22T02:24:17;3.30;;;2.50;;
6394;SDS011;3230;42.588;23.358;2023-11-22T02:26:45;4.77;;;3.20;;
6394;SDS011;3230;42.588;23.358;2023-11-22T02:29:11;4.57;;;3.27;;
6394;SDS011;3230;42.588;23.358;2023-11-22T02:31:38;4.97;;;3.37;;
6394;SDS011;3230;42.588;23.358;2023-11-22T02:34:04;7.70;;;4.67;;
6394;SDS011;3230;42.588;23.358;2023-11-22T02:36:37;7.17;;;4.23;;
6394;SDS011;3230;42.588;23.358;2023-11-22T02:39:02;6.13;;;4.00;;
6394;SDS011;3230;42.588;23.358;2023-11-22T02:41:28;7.50;;;3.93;;
6394;SDS011;3230;42.588;23.358;2023-11-22T02:43:56;7.63;;;4.63;;
6394;SDS011;3230;42.588;23.358;2023-11-22T02:46:22;8.30;;;4.67;;
6394;SDS011;3230;42.588;23.358;2023-11-22T02:48:48;10.97;;;5.33;;
6394;SDS011;3230;42.588;23.358;2023-11-22T02:51:14;9.90;;;5.40;;
6394;SDS011;3230;42.588;23.358;2023-11-22T02:53:40;8.63;;;5.40;;
6394;SDS011;3230;42.588;23.358;2023-11-22T02:56:08;8.03;;;5.20;;
6394;SDS011;3230;42.588;23.358;2023-11-22T02:58:34;6.83;;;4.10;;
6394;SDS011;3230;42.588;23.358;2023-11-22T03:01:00;6.30;;;3.77;;
6394;SDS011;3230;42.588;23.358;2023-11-22T03:03:25;5.73;;;3.70;;
6394;SDS011;3230;42.588;23.358;2023-11-22T03:05:50;4.67;;;3.40;;
6394;SDS011;3230;42.588;23.358;2023-11-22T03:08:16;4.67;;;3.10;;
6394;SDS011;3230;42.588;23.358;2023-11-22T03:10:42;3.73;;;3.10;;
6394;SDS011;3230;42.588;23.358;2023-11-22T03:13:07;4.50;;;3.60;;
6394;SDS011;3230;42.588;23.358;2023-11-22T03:15:33;5.57;;;3.70;;
6394;SDS011;3230;42.588;23.358;2023-11-22T03:17:59;5.47;;;3.27;;
6394;SDS011;3230;42.588;23.358;2023-11-22T03:20:26;6.30;;;3.57;;
6394;SDS011;3230;42.588;23.358;2023-11-22T03:22:52;5.20;;;3.40;;
6394;SDS011;3230;42.588;23.358;2023-11-22T03:25:17;5.20;;;3.30;;
6394;SDS011;3230;42.588;23.358;2023-11-22T03:27:43;4.53;;;3.10;;
6394;SDS011;3230;42.588;23.358;2023-11-22T03:30:09;7.00;;;3.83;;
6394;SDS011;3230;42.588;23.358;2023-11-22T03:32:39;6.67;;;3.77;;
6394;SDS011;3230;42.588;23.358;2023-11-22T03:35:08;5.83;;;3.40;;
6394;SDS011;3230;42.588;23.358;2023-11-22T03:37:34;10.00;;;3.90;;
6394;SDS011;3230;42.588;23.358;2023-11-22T03:39:59;6.90;;;3.50;;
6394;SDS011;3230;42.588;23.358;2023-11-22T03:42:25;6.80;;;4.03;;
6394;SDS011;3230;42.588;23.358;2023-11-22T03:44:52;9.60;;;5.30;;
6394;SDS011;3230;42.588;23.358;2023-11-22T03:47:18;5.47;;;4.10;;
6394;SDS011;3230;42.588;23.358;2023-11-22T03:49:44;6.13;;;3.80;;
6394;SDS011;3230;42.588;23.358;2023-11-22T03:52:10;6.90;;;3.90;;
6394;SDS011;3230;42.588;23.358;2023-11-22T03:54:36;5.60;;;3.60;;
6394;SDS011;3230;42.588;23.358;2023-11-22T03:57:03;7.83;;;4.40;;
6394;SDS011;3230;42.588;23.358;2023-11-22T03:59:28;5.60;;;3.60;;
6394;SDS011;3230;42.588;23.358;2023-11-22T04:01:54;7.57;;;4.57;;
6394;SDS011;3230;42.588;23.358;2023-11-22T04:04:20;8.60;;;4.90;;
6394;SDS011;3230;42.588;23.358;2023-11-22T04:06:45;9.20;;;5.87;;
6394;SDS011;3230;42.588;23.358;2023-11-22T04:09:11;8.00;;;4.80;;
6394;SDS011;3230;42.588;23.358;2023-11-22T04:11:39;8.27;;;5.10;;
6394;SDS011;3230;42.588;23.358;2023-11-22T04:14:05;7.33;;;5.07;;
6394;SDS011;3230;42.588;23.358;2023-11-22T04:16:31;6.03;;;4.30;;
6394;SDS011;3230;42.588;23.358;2023-11-22T04:18:56;7.33;;;4.50;;
6394;SDS011;3230;42.588;23.358;2023-11-22T04:21:22;7.97;;;4.17;;
6394;SDS011;3230;42.588;23.358;2023-11-22T04:23:47;5.30;;;3.90;;
6394;SDS011;3230;42.588;23.358;2023-11-22T04:26:16;6.13;;;4.50;;
6394;SDS011;3230;42.588;23.358;2023-11-22T04:28:41;7.60;;;4.40;;
6394;SDS011;3230;42.588;23.358;2023-11-22T04:31:07;6.27;;;4.53;;
6394;SDS011;3230;42.588;23.358;2023-11-22T04:33:35;8.80;;;5.23;;
6394;SDS011;3230;42.588;23.358;2023-11-22T04:36:01;6.00;;;4.40;;
6394;SDS011;3230;42.588;23.358;2023-11-22T04:38:26;9.43;;;5.30;;
6394;SDS011;3230;42.588;23.358;2023-11-22T04:40:52;9.07;;;4.70;;
6394;SDS011;3230;42.588;23.358;2023-11-22T04:43:18;4.93;;;3.80;;
6394;SDS011;3230;42.588;23.358;2023-11-22T04:45:43;9.43;;;4.73;;
6394;SDS011;3230;42.588;23.358;2023-11-22T04:48:09;8.70;;;4.70;;
6394;SDS011;3230;42.588;23.358;2023-11-22T04:50:34;7.60;;;4.63;;
6394;SDS011;3230;42.588;23.358;2023-11-22T04:53:00;8.33;;;5.10;;
6394;SDS011;3230;42.588;23.358;2023-11-22T04:55:26;6.87;;;4.77;;
6394;SDS011;3230;42.588;23.358;2023-11-22T04:57:53;6.50;;;4.17;;
6394;SDS011;3230;42.588;23.358;2023-11-22T05:00:19;8.20;;;4.70;;
6394;SDS011;3230;42.588;23.358;2023-11-22T05:02:44;9.20;;;5.20;;
6394;SDS011;3230;42.588;23.358;2023-11-22T05:05:10;6.40;;;4.93;;
6394;SDS011;3230;42.588;23.358;2023-11-22T05:07:35;8.20;;;4.80;;
6394;SDS011;3230;42.588;23.358;2023-11-22T05:10:01;9.27;;;5.10;;
6394;SDS011;3230;42.588;23.358;2023-11-22T05:12:28;9.33;;;5.17;;
6394;SDS011;3230;42.588;23.358;2023-11-22T05:14:53;10.33;;;4.90;;
6394;SDS011;3230;42.588;23.358;2023-11-22T05:17:19;7.40;;;5.23;;
6394;SDS011;3230;42.588;23.358;2023-11-22T05:19:45;8.90;;;5.50;;
6394;SDS011;3230;42.588;23.358;2023-11-22T05:22:10;16.20;;;6.40;;
6394;SDS011;3230;42.588;23.358;2023-11-22T05:24:35;8.30;;;5.57;;
6394;SDS011;3230;42.588;23.358;2023-11-22T05:27:03;10.73;;;6.10;;
6394;SDS011;3230;42.588;23.358;2023-11-22T05:29:29;8.43;;;5.57;;
6394;SDS011;3230;42.588;23.358;2023-11-22T05:31:54;9.80;;;5.73;;
6394;SDS011;3230;42.588;23.358;2023-11-22T05:34:20;21.07;;;11.87;;
6394;SDS011;3230;42.588;23.358;2023-11-22T05:36:46;11.40;;;7.27;;
6394;SDS011;3230;42.588;23.358;2023-11-22T05:39:11;19.40;;;8.37;;
6394;SDS011;3230;42.588;23.358;2023-11-22T05:41:37;12.53;;;7.60;;
6394;SDS011;3230;42.588;23.358;2023-11-22T05:44:03;14.90;;;7.30;;
6394;SDS011;3230;42.588;23.358;2023-11-22T05:46:28;13.73;;;7.47;;
6394;SDS011;3230;42.588;23.358;2023-11-22T05:48:54;15.90;;;8.93;;
6394;SDS011;3230;42.588;23.358;2023-11-22T05:51:19;13.37;;;8.17;;
6394;SDS011;3230;42.588;23.358;2023-11-22T05:53:45;15.40;;;8.83;;
6394;SDS011;3230;42.588;23.358;2023-11-22T05:56:11;13.40;;;8.47;;
6394;SDS011;3230;42.588;23.358;2023-11-22T05:58:37;11.70;;;8.33;;
6394;SDS011;3230;42.588;23.358;2023-11-22T06:01:06;14.63;;;8.83;;
6394;SDS011;3230;42.588;23.358;2023-11-22T06:03:33;15.53;;;10.07;;
6394;SDS011;3230;42.588;23.358;2023-11-22T06:05:59;18.17;;;10.60;;
6394;SDS011;3230;42.588;23.358;2023-11-22T06:08:24;20.00;;;10.20;;
6394;SDS011;3230;42.588;23.358;2023-11-22T06:10:50;13.53;;;9.20;;
6394;SDS011;3230;42.588;23.358;2023-11-22T06:13:16;16.37;;;9.40;;
6394;SDS011;3230;42.588;23.358;2023-11-22T06:15:43;16.47;;;9.03;;
6394;SDS011;3230;42.588;23.358;2023-11-22T06:18:08;15.40;;;9.40;;
6394;SDS011;3230;42.588;23.358;2023-11-22T06:20:34;14.77;;;9.00;;
6394;SDS011;3230;42.588;23.358;2023-11-22T06:22:59;14.37;;;9.43;;
6394;SDS011;3230;42.588;23.358;2023-11-22T06:25:25;14.83;;;8.50;;
6394;SDS011;3230;42.588;23.358;2023-11-22T06:27:50;17.70;;;10.00;;
6394;SDS011;3230;42.588;23.358;2023-11-22T06:30:15;11.97;;;7.23;;
6394;SDS011;3230;42.588;23.358;2023-11-22T06:32:49;11.73;;;8.03;;
6394;SDS011;3230;42.588;23.358;2023-11-22T06:35:15;13.50;;;8.10;;
6394;SDS011;3230;42.588;23.358;2023-11-22T06:37:42;16.53;;;9.07;;
6394;SDS011;3230;42.588;23.358;2023-11-22T06:40:08;16.13;;;8.80;;
6394;SDS011;3230;42.588;23.358;2023-11-22T06:42:37;13.40;;;8.80;;
6394;SDS011;3230;42.588;23.358;2023-11-22T06:45:03;13.93;;;9.53;;
6394;SDS011;3230;42.588;23.358;2023-11-22T06:47:31;18.40;;;10.93;;
6394;SDS011;3230;42.588;23.358;2023-11-22T06:49:57;15.23;;;9.97;;
6394;SDS011;3230;42.588;23.358;2023-11-22T06:52:23;16.90;;;10.57;;
6394;SDS011;3230;42.588;23.358;2023-11-22T06:54:48;15.90;;;9.83;;
6394;SDS011;3230;42.588;23.358;2023-11-22T06:57:14;16.03;;;10.00;;
6394;SDS011;3230;42.588;23.358;2023-11-22T06:59:40;18.60;;;12.20;;
6394;SDS011;3230;42.588;23.358;2023-11-22T07:02:06;18.10;;;11.20;;
6394;SDS011;3230;42.588;23.358;2023-11-22T07:04:32;20.90;;;11.73;;
6394;SDS011;3230;42.588;23.358;2023-11-22T07:06:58;20.10;;;11.10;;
6394;SDS011;3230;42.588;23.358;2023-11-22T07:09:23;20.33;;;11.40;;
6394;SDS011;3230;42.588;23.358;2023-11-22T07:11:48;19.93;;;11.10;;
6394;SDS011;3230;42.588;23.358;2023-11-22T07:14:14;17.13;;;10.10;;
6394;SDS011;3230;42.588;23.358;2023-11-22T07:16:41;20.43;;;12.80;;
6394;SDS011;3230;42.588;23.358;2023-11-22T07:19:07;16.80;;;11.37;;
6394;SDS011;3230;42.588;23.358;2023-11-22T07:21:32;25.13;;;15.70;;
6394;SDS011;3230;42.588;23.358;2023-11-22T07:23:58;28.30;;;16.30;;
6394;SDS011;3230;42.588;23.358;2023-11-22T07:26:24;22.70;;;12.87;;
6394;SDS011;3230;42.588;23.358;2023-11-22T07:28:51;20.10;;;10.67;;
6394;SDS011;3230;42.588;23.358;2023-11-22T07:31:17;15.13;;;9.53;;
6394;SDS011;3230;42.588;23.358;2023-11-22T07:33:42;12.40;;;8.67;;
6394;SDS011;3230;42.588;23.358;2023-11-22T07:36:08;11.97;;;7.50;;
6394;SDS011;3230;42.588;23.358;2023-11-22T07:38:34;12.53;;;7.53;;
6394;SDS011;3230;42.588;23.358;2023-11-22T07:40:59;12.30;;;7.87;;
6394;SDS011;3230;42.588;23.358;2023-11-22T07:43:25;13.30;;;8.37;;
6394;SDS011;3230;42.588;23.358;2023-11-22T07:45:51;12.40;;;7.70;;
6394;SDS011;3230;42.588;23.358;2023-11-22T07:48:16;12.97;;;8.00;;
6394;SDS011;3230;42.588;23.358;2023-11-22T07:50:42;10.83;;;6.17;;
6394;SDS011;3230;42.588;23.358;2023-11-22T07:53:14;11.37;;;6.63;;
6394;SDS011;3230;42.588;23.358;2023-11-22T07:55:39;17.27;;;7.33;;
6394;SDS011;3230;42.588;23.358;2023-11-22T07:58:07;9.50;;;6.33;;
6394;SDS011;3230;42.588;23.358;2023-11-22T08:00:33;11.60;;;6.60;;
6394;SDS011;3230;42.588;23.358;2023-11-22T08:03:02;9.10;;;6.07;;
6394;SDS011;3230;42.588;23.358;2023-11-22T08:05:28;10.80;;;6.77;;
6394;SDS011;3230;42.588;23.358;2023-11-22T08:07:54;15.63;;;7.40;;
6394;SDS011;3230;42.588;23.358;2023-11-22T08:10:19;12.23;;;8.07;;
6394;SDS011;3230;42.588;23.358;2023-11-22T08:12:46;12.60;;;7.40;;
6394;SDS011;3230;42.588;23.358;2023-11-22T08:15:13;13.73;;;8.67;;
6394;SDS011;3230;42.588;23.358;2023-11-22T08:17:42;15.13;;;8.03;;
6394;SDS011;3230;42.588;23.358;2023-11-22T08:20:08;12.10;;;7.23;;
6394;SDS011;3230;42.588;23.358;2023-11-22T08:22:38;15.83;;;7.70;;
6394;SDS011;3230;42.588;23.358;2023-11-22T08:25:06;11.00;;;7.17;;
6394;SDS011;3230;42.588;23.358;2023-11-22T08:27:33;14.67;;;7.73;;
6394;SDS011;3230;42.588;23.358;2023-11-22T08:29:59;12.43;;;7.90;;
6394;SDS011;3230;42.588;23.358;2023-11-22T08:32:29;9.93;;;6.93;;
6394;SDS011;3230;42.588;23.358;2023-11-22T08:34:58;12.07;;;6.80;;
6394;SDS011;3230;42.588;23.358;2023-11-22T08:37:23;10.53;;;6.63;;
6394;SDS011;3230;42.588;23.358;2023-11-22T08:39:49;8.87;;;6.37;;
6394;SDS011;3230;42.588;23.358;2023-11-22T08:42:15;10.10;;;5.57;;
6394;SDS011;3230;42.588;23.358;2023-11-22T08:44:41;11.27;;;6.37;;
6394;SDS011;3230;42.588;23.358;2023-11-22T08:47:06;8.90;;;5.83;;
6394;SDS011;3230;42.588;23.358;2023-11-22T08:49:33;13.10;;;5.37;;
6394;SDS011;3230;42.588;23.358;2023-11-22T08:51:59;9.27;;;5.83;;
6394;SDS011;3230;42.588;23.358;2023-11-22T08:54:24;12.53;;;6.40;;
6394;SDS011;3230;42.588;23.358;2023-11-22T08:56:54;10.77;;;7.23;;
6394;SDS011;3230;42.588;23.358;2023-11-22T08:59:23;8.87;;;6.07;;
6394;SDS011;3230;42.588;23.358;2023-11-22T09:01:48;9.27;;;6.30;;
6394;SDS011;3230;42.588;23.358;2023-11-22T09:04:14;11.97;;;8.40;;
6394;SDS011;3230;42.588;23.358;2023-11-22T09:06:40;15.67;;;10.20;;
6394;SDS011;3230;42.588;23.358;2023-11-22T09:09:06;14.43;;;9.00;;
6394;SDS011;3230;42.588;23.358;2023-11-22T09:11:33;12.13;;;7.60;;
6394;SDS011;3230;42.588;23.358;2023-11-22T09:13:59;11.70;;;6.97;;
6394;SDS011;3230;42.588;23.358;2023-11-22T09:16:27;10.73;;;6.97;;
6394;SDS011;3230;42.588;23.358;2023-11-22T09:18:52;10.37;;;6.67;;
6394;SDS011;3230;42.588;23.358;2023-11-22T09:21:19;10.10;;;6.20;;
6394;SDS011;3230;42.588;23.358;2023-11-22T09:23:46;14.57;;;7.10;;
6394;SDS011;3230;42.588;23.358;2023-11-22T09:26:13;7.63;;;5.70;;
6394;SDS011;3230;42.588;23.358;2023-11-22T09:28:39;9.57;;;6.60;;
6394;SDS011;3230;42.588;23.358;2023-11-22T09:31:08;11.90;;;6.53;;
6394;SDS011;3230;42.588;23.358;2023-11-22T09:33:36;10.67;;;6.33;;
6394;SDS011;3230;42.588;23.358;2023-11-22T09:36:02;9.17;;;6.37;;
6394;SDS011;3230;42.588;23.358;2023-11-22T09:38:29;8.03;;;6.10;;
6394;SDS011;3230;42.588;23.358;2023-11-22T09:40:54;10.37;;;6.03;;
6394;SDS011;3230;42.588;23.358;2023-11-22T09:43:21;9.83;;;6.63;;
6394;SDS011;3230;42.588;23.358;2023-11-22T09:45:49;9.30;;;6.00;;
6394;SDS011;3230;42.588;23.358;2023-11-22T09:48:19;11.00;;;6.47;;
6394;SDS011;3230;42.588;23.358;2023-11-22T09:56:01;10.20;;;6.50;;
6394;SDS011;3230;42.588;23.358;2023-11-22T09:58:29;23.07;;;9.83;;
6394;SDS011;3230;42.588;23.358;2023-11-22T10:01:02;11.70;;;7.37;;
6394;SDS011;3230;42.588;23.358;2023-11-22T10:03:33;11.00;;;6.70;;
6394;SDS011;3230;42.588;23.358;2023-11-22T10:05:59;10.67;;;5.90;;
6394;SDS011;3230;42.588;23.358;2023-11-22T10:08:28;13.47;;;7.33;;
6394;SDS011;3230;42.588;23.358;2023-11-22T10:10:57;15.53;;;9.80;;
6394;SDS011;3230;42.588;23.358;2023-11-22T10:13:23;11.60;;;7.77;;
6394;SDS011;3230;42.588;23.358;2023-11-22T10:15:49;18.37;;;8.87;;
6394;SDS011;3230;42.588;23.358;2023-11-22T10:18:15;22.33;;;10.83;;
6394;SDS011;3230;42.588;23.358;2023-11-22T10:20:43;22.30;;;11.80;;
6394;SDS011;3230;42.588;23.358;2023-11-22T10:23:11;15.97;;;9.20;;
6394;SDS011;3230;42.588;23.358;2023-11-22T10:25:48;23.07;;;11.13;;
6394;SDS011;3230;42.588;23.358;2023-11-22T10:28:17;20.93;;;11.73;;
6394;SDS011;3230;42.588;23.358;2023-11-22T10:30:43;18.00;;;10.50;;
6394;SDS011;3230;42.588;23.358;2023-11-22T10:33:10;15.10;;;9.07;;
6394;SDS011;3230;42.588;23.358;2023-11-22T10:35:41;14.47;;;10.10;;
6394;SDS011;3230;42.588;23.358;2023-11-22T10:38:14;17.63;;;10.53;;
6394;SDS011;3230;42.588;23.358;2023-11-22T10:40:42;20.07;;;11.80;;
6394;SDS011;3230;42.588;23.358;2023-11-22T10:43:12;17.70;;;10.97;;
6394;SDS011;3230;42.588;23.358;2023-11-22T10:45:38;18.07;;;10.80;;
6394;SDS011;3230;42.588;23.358;2023-11-22T10:48:06;17.13;;;10.33;;
6394;SDS011;3230;42.588;23.358;2023-11-22T10:50:34;15.77;;;8.13;;
6394;SDS011;3230;42.588;23.358;2023-11-22T10:52:59;16.40;;;9.43;;
6394;SDS011;3230;42.588;23.358;2023-11-22T10:55:31;18.33;;;9.10;;
6394;SDS011;3230;42.588;23.358;2023-11-22T10:58:01;22.10;;;10.80;;
6394;SDS011;3230;42.588;23.358;2023-11-22T11:00:27;28.87;;;16.43;;
6394;SDS011;3230;42.588;23.358;2023-11-22T11:03:01;33.77;;;17.30;;
6394;SDS011;3230;42.588;23.358;2023-11-22T11:05:34;26.40;;;15.73;;
6394;SDS011;3230;42.588;23.358;2023-11-22T11:10:39;28.60;;;14.30;;
6394;SDS011;3230;42.588;23.358;2023-11-22T11:13:09;28.60;;;15.17;;
6394;SDS011;3230;42.588;23.358;2023-11-22T11:15:39;25.43;;;14.27;;
6394;SDS011;3230;42.588;23.358;2023-11-22T11:18:12;24.97;;;14.00;;
6394;SDS011;3230;42.588;23.358;2023-11-22T11:20:53;23.07;;;10.87;;
6394;SDS011;3230;42.588;23.358;2023-11-22T11:23:24;14.07;;;9.10;;
6394;SDS011;3230;42.588;23.358;2023-11-22T11:25:58;18.87;;;11.83;;
6394;SDS011;3230;42.588;23.358;2023-11-22T11:28:28;25.27;;;14.20;;
6394;SDS011;3230;42.588;23.358;2023-11-22T11:31:08;24.63;;;12.80;;
6394;SDS011;3230;42.588;23.358;2023-11-22T11:33:34;19.43;;;11.67;;
6394;SDS011;3230;42.588;23.358;2023-11-22T11:36:25;24.03;;;13.23;;
6394;SDS011;3230;42.588;23.358;2023-11-22T11:38:57;19.73;;;11.87;;
6394;SDS011;3230;42.588;23.358;2023-11-22T11:41:26;18.60;;;10.50;;
6394;SDS011;3230;42.588;23.358;2023-11-22T11:43:53;16.40;;;9.27;;
6394;SDS011;3230;42.588;23.358;2023-11-22T11:46:20;17.10;;;9.70;;
6394;SDS011;3230;42.588;23.358;2023-11-22T11:48:48;14.40;;;8.73;;
6394;SDS011;3230;42.588;23.358;2023-11-22T11:51:16;14.40;;;8.67;;
6394;SDS011;3230;42.588;23.358;2023-11-22T11:53:52;11.50;;;6.47;;
6394;SDS011;3230;42.588;23.358;2023-11-22T11:56:18;11.90;;;7.00;;
6394;SDS011;3230;42.588;23.358;2023-11-22T11:58:44;9.57;;;6.20;;
6394;SDS011;3230;42.588;23.358;2023-11-22T12:01:12;9.30;;;6.03;;
6394;SDS011;3230;42.588;23.358;2023-11-22T12:03:38;15.83;;;6.43;;
6394;SDS011;3230;42.588;23.358;2023-11-22T12:06:06;8.93;;;5.80;;
6394;SDS011;3230;42.588;23.358;2023-11-22T12:08:32;13.40;;;8.20;;
6394;SDS011;3230;42.588;23.358;2023-11-22T12:11:01;15.17;;;9.10;;
6394;SDS011;3230;42.588;23.358;2023-11-22T12:13:31;20.53;;;10.70;;
6394;SDS011;3230;42.588;23.358;2023-11-22T12:15:57;17.43;;;10.10;;
6394;SDS011;3230;42.588;23.358;2023-11-22T12:18:23;17.13;;;9.90;;
6394;SDS011;3230;42.588;23.358;2023-11-22T12:20:56;17.27;;;9.47;;
6394;SDS011;3230;42.588;23.358;2023-11-22T12:23:26;14.73;;;9.80;;
6394;SDS011;3230;42.588;23.358;2023-11-22T12:25:56;16.40;;;9.10;;
6394;SDS011;3230;42.588;23.358;2023-11-22T12:28:31;17.83;;;10.27;;
6394;SDS011;3230;42.588;23.358;2023-11-22T12:31:10;19.27;;;10.10;;
6394;SDS011;3230;42.588;23.358;2023-11-22T12:33:37;20.80;;;10.60;;
6394;SDS011;3230;42.588;23.358;2023-11-22T12:36:05;20.23;;;11.37;;
6394;SDS011;3230;42.588;23.358;2023-11-22T12:38:31;17.83;;;11.93;;
6394;SDS011;3230;42.588;23.358;2023-11-22T12:40:57;14.80;;;9.67;;
6394;SDS011;3230;42.588;23.358;2023-11-22T12:43:23;16.50;;;9.20;;
6394;SDS011;3230;42.588;23.358;2023-11-22T12:45:59;17.93;;;10.67;;
6394;SDS011;3230;42.588;23.358;2023-11-22T12:48:25;18.40;;;9.70;;
6394;SDS011;3230;42.588;23.358;2023-11-22T12:50:54;12.60;;;8.77;;
6394;SDS011;3230;42.588;23.358;2023-11-22T12:53:21;18.40;;;9.87;;
6394;SDS011;3230;42.588;23.358;2023-11-22T12:55:49;15.63;;;9.77;;
6394;SDS011;3230;42.588;23.358;2023-11-22T12:58:16;15.43;;;9.57;;
6394;SDS011;3230;42.588;23.358;2023-11-22T13:00:46;16.03;;;9.70;;
6394;SDS011;3230;42.588;23.358;2023-11-22T13:03:13;14.17;;;9.07;;
6394;SDS011;3230;42.588;23.358;2023-11-22T13:05:39;16.70;;;9.60;;
6394;SDS011;3230;42.588;23.358;2023-11-22T13:08:08;19.00;;;9.47;;
6394;SDS011;3230;42.588;23.358;2023-11-22T13:10:36;16.00;;;10.13;;
6394;SDS011;3230;42.588;23.358;2023-11-22T13:13:02;15.90;;;9.97;;
6394;SDS011;3230;42.588;23.358;2023-11-22T13:15:27;16.53;;;10.30;;
6394;SDS011;3230;42.588;23.358;2023-11-22T13:18:01;17.20;;;9.93;;
6394;SDS011;3230;42.588;23.358;2023-11-22T13:20:27;19.60;;;9.63;;
6394;SDS011;3230;42.588;23.358;2023-11-22T13:22:53;18.77;;;11.40;;
6394;SDS011;3230;42.588;23.358;2023-11-22T13:25:22;19.20;;;11.53;;
6394;SDS011;3230;42.588;23.358;2023-11-22T13:27:49;19.23;;;11.00;;
6394;SDS011;3230;42.588;23.358;2023-11-22T13:30:15;18.23;;;11.00;;
6394;SDS011;3230;42.588;23.358;2023-11-22T13:32:44;20.80;;;10.47;;
6394;SDS011;3230;42.588;23.358;2023-11-22T13:35:10;16.83;;;9.33;;
6394;SDS011;3230;42.588;23.358;2023-11-22T13:37:40;16.27;;;10.00;;
6394;SDS011;3230;42.588;23.358;2023-11-22T13:40:09;19.97;;;11.50;;
6394;SDS011;3230;42.588;23.358;2023-11-22T13:42:39;20.27;;;10.57;;
6394;SDS011;3230;42.588;23.358;2023-11-22T13:45:05;21.10;;;12.23;;
6394;SDS011;3230;42.588;23.358;2023-11-22T13:47:32;16.77;;;10.30;;
6394;SDS011;3230;42.588;23.358;2023-11-22T13:49:58;22.83;;;9.57;;
6394;SDS011;3230;42.588;23.358;2023-11-22T13:52:24;15.57;;;9.40;;
6394;SDS011;3230;42.588;23.358;2023-11-22T13:54:49;16.93;;;10.07;;
6394;SDS011;3230;42.588;23.358;2023-11-22T13:57:16;19.27;;;10.10;;
6394;SDS011;3230;42.588;23.358;2023-11-22T13:59:42;17.00;;;10.10;;
6394;SDS011;3230;42.588;23.358;2023-11-22T14:02:07;18.57;;;10.13;;
6394;SDS011;3230;42.588;23.358;2023-11-22T14:04:33;22.33;;;12.20;;
6394;SDS011;3230;42.588;23.358;2023-11-22T14:06:59;16.80;;;10.30;;
6394;SDS011;3230;42.588;23.358;2023-11-22T14:09:25;15.00;;;9.40;;
6394;SDS011;3230;42.588;23.358;2023-11-22T14:11:52;20.00;;;10.17;;
6394;SDS011;3230;42.588;23.358;2023-11-22T14:14:18;22.00;;;14.33;;
6394;SDS011;3230;42.588;23.358;2023-11-22T14:16:44;21.20;;;12.57;;
6394;SDS011;3230;42.588;23.358;2023-11-22T14:19:10;21.40;;;12.33;;
6394;SDS011;3230;42.588;23.358;2023-11-22T14:21:37;26.07;;;14.80;;
6394;SDS011;3230;42.588;23.358;2023-11-22T14:24:02;40.60;;;16.03;;
6394;SDS011;3230;42.588;23.358;2023-11-22T14:26:29;23.20;;;11.20;;
6394;SDS011;3230;42.588;23.358;2023-11-22T14:28:54;18.53;;;10.17;;
6394;SDS011;3230;42.588;23.358;2023-11-22T14:31:19;23.80;;;9.37;;
6394;SDS011;3230;42.588;23.358;2023-11-22T14:33:45;20.53;;;11.00;;
6394;SDS011;3230;42.588;23.358;2023-11-22T14:36:10;22.67;;;12.23;;
6394;SDS011;3230;42.588;23.358;2023-11-22T14:38:36;27.27;;;12.87;;
6394;SDS011;3230;42.588;23.358;2023-11-22T14:41:01;23.50;;;12.90;;
6394;SDS011;3230;42.588;23.358;2023-11-22T14:43:28;22.83;;;13.67;;
6394;SDS011;3230;42.588;23.358;2023-11-22T14:45:54;27.37;;;14.00;;
6394;SDS011;3230;42.588;23.358;2023-11-22T14:48:20;26.03;;;13.77;;
6394;SDS011;3230;42.588;23.358;2023-11-22T14:50:46;25.77;;;14.53;;
6394;SDS011;3230;42.588;23.358;2023-11-22T14:53:11;30.80;;;15.33;;
6394;SDS011;3230;42.588;23.358;2023-11-22T14:55:37;26.30;;;14.70;;